sensor_id;sensor_type;location;lat;lon;timestamp;pressure;altitude;pressure_sealevel;temperature;humidity
55410;BME280;41279;43.546;16.426;2023-03-03T00:00:47;52554.47;;;-146.77;66.88
55410;BME280;41279;43.546;16.426;2023-03-03T00:03:18;52506.41;;;-146.77;70.82
55410;BME280;41279;43.546;16.426;2023-03-03T00:05:44;52522.44;;;-146.77;71.52
55410;BME280;41279;43.546;16.426;2023-03-03T00:08:09;52504.41;;;-146.77;75.92
55410;BME280;41279;43.546;16.426;2023-03-03T00:10:36;52466.38;;;-146.77;80.57
55410;BME280;41279;43.546;16.426;2023-03-03T00:13:02;52466.38;;;-146.77;77.22
55410;BME280;41279;43.546;16.426;2023-03-03T00:15:29;52518.44;;;-146.77;74.11
55410;BME280;41279;43.546;16.426;2023-03-03T00:17:54;52498.41;;;-146.77;74.57
55410;BME280;41279;43.546;16.426;2023-03-03T00:23:08;52472.38;;;-146.77;79.23
55410;BME280;41279;43.546;16.426;2023-03-03T00:25:42;52470.38;;;-146.77;78.91
55410;BME280;41279;43.546;16.426;2023-03-03T00:28:32;52468.38;;;-146.77;78.67
55410;BME280;41279;43.546;16.426;2023-03-03T00:31:16;52486.41;;;-146.77;77.54
55410;BME280;41279;43.546;16.426;2023-03-03T00:33:48;52502.41;;;-146.77;77.54
55410;BME280;41279;43.546;16.426;2023-03-03T00:38:41;52550.47;;;-146.77;74.79
55410;BME280;41279;43.546;16.426;2023-03-03T00:41:23;52532.44;;;-146.77;71.00
55410;BME280;41279;43.546;16.426;2023-03-03T00:43:50;52550.47;;;-146.77;72.62
55410;BME280;41279;43.546;16.426;2023-03-03T00:46:21;52530.44;;;-146.77;75.52
55410;BME280;41279;43.546;16.426;2023-03-03T00:48:48;52532.44;;;-146.77;76.88
55410;BME280;41279;43.546;16.426;2023-03-03T00:51:31;52542.44;;;-146.77;76.84
55410;BME280;41279;43.546;16.426;2023-03-03T00:53:58;52472.38;;;-146.77;81.89
55410;BME280;41279;43.546;16.426;2023-03-03T00:56:24;52478.38;;;-146.77;82.84
55410;BME280;41279;43.546;16.426;2023-03-03T00:58:50;52546.47;;;-146.77;74.20
55410;BME280;41279;43.546;16.426;2023-03-03T01:01:16;52540.44;;;-146.77;71.95
55410;BME280;41279;43.546;16.426;2023-03-03T01:03:43;52558.47;;;-146.77;73.60
55410;BME280;41279;43.546;16.426;2023-03-03T01:06:09;52554.47;;;-146.77;70.95
55410;BME280;41279;43.546;16.426;2023-03-03T01:08:35;52526.44;;;-146.77;74.33
55410;BME280;41279;43.546;16.426;2023-03-03T01:11:18;52556.47;;;-146.77;70.46
55410;BME280;41279;43.546;16.426;2023-03-03T01:13:47;52508.41;;;-146.77;76.00
55410;BME280;41279;43.546;16.426;2023-03-03T01:16:13;52462.38;;;-146.77;77.79
55410;BME280;41279;43.546;16.426;2023-03-03T01:18:39;52498.41;;;-146.77;76.46
55410;BME280;41279;43.546;16.426;2023-03-03T01:21:06;52546.47;;;-146.77;71.30
55410;BME280;41279;43.546;16.426;2023-03-03T01:23:32;52518.44;;;-146.77;69.87
55410;BME280;41279;43.546;16.426;2023-03-03T01:25:57;52598.50;;;-146.77;66.85
55410;BME280;41279;43.546;16.426;2023-03-03T01:28:23;52554.47;;;-146.77;66.27
55410;BME280;41279;43.546;16.426;2023-03-03T01:30:48;52600.50;;;-146.77;64.48
55410;BME280;41279;43.546;16.426;2023-03-03T01:33:15;52630.53;;;-146.77;61.38
55410;BME280;41279;43.546;16.426;2023-03-03T01:35:44;52618.53;;;-146.77;60.12
55410;BME280;41279;43.546;16.426;2023-03-03T01:38:10;52652.56;;;-146.77;57.41
55410;BME280;41279;43.546;16.426;2023-03-03T01:40:37;52576.50;;;-146.77;58.21
55410;BME280;41279;43.546;16.426;2023-03-03T01:43:02;52604.50;;;-146.77;60.10
55410;BME280;41279;43.546;16.426;2023-03-03T01:45:30;52606.53;;;-146.77;60.27
55410;BME280;41279;43.546;16.426;2023-03-03T01:48:05;52558.47;;;-146.77;61.28
55410;BME280;41279;43.546;16.426;2023-03-03T01:50:56;52554.47;;;-146.77;64.02
55410;BME280;41279;43.546;16.426;2023-03-03T01:53:43;52530.44;;;-146.77;68.07
55410;BME280;41279;43.546;16.426;2023-03-03T01:56:11;52518.44;;;-146.77;76.65
55410;BME280;41279;43.546;16.426;2023-03-03T01:58:40;52482.38;;;-146.77;79.61
55410;BME280;41279;43.546;16.426;2023-03-03T02:01:23;52462.38;;;-146.77;78.05
55410;BME280;41279;43.546;16.426;2023-03-03T02:03:49;52532.44;;;-146.77;74.66
55410;BME280;41279;43.546;16.426;2023-03-03T02:06:17;52510.41;;;-146.77;73.47
55410;BME280;41279;43.546;16.426;2023-03-03T02:08:54;52526.44;;;-146.77;73.74
55410;BME280;41279;43.546;16.426;2023-03-03T02:11:24;52486.41;;;-146.77;77.58
55410;BME280;41279;43.546;16.426;2023-03-03T02:13:51;52456.38;;;-146.77;78.18
55410;BME280;41279;43.546;16.426;2023-03-03T02:16:17;52552.47;;;-146.77;75.11
55410;BME280;41279;43.546;16.426;2023-03-03T02:18:43;52534.44;;;-146.77;71.97
55410;BME280;41279;43.546;16.426;2023-03-03T02:21:11;52542.44;;;-146.77;70.49
55410;BME280;41279;43.546;16.426;2023-03-03T02:26:26;52524.44;;;-146.77;68.17
55410;BME280;41279;43.546;16.426;2023-03-03T02:28:52;52626.53;;;-146.77;61.26
55410;BME280;41279;43.546;16.426;2023-03-03T02:31:20;52588.50;;;-146.77;65.09
55410;BME280;41279;43.546;16.426;2023-03-03T02:33:50;52596.50;;;-146.77;63.84
55410;BME280;41279;43.546;16.426;2023-03-03T02:41:52;52624.53;;;-146.77;63.09
55410;BME280;41279;43.546;16.426;2023-03-03T02:44:28;52622.53;;;-146.77;63.04
55410;BME280;41279;43.546;16.426;2023-03-03T02:46:56;52630.53;;;-146.77;62.27
55410;BME280;41279;43.546;16.426;2023-03-03T02:49:32;52598.50;;;-146.77;63.38
55410;BME280;41279;43.546;16.426;2023-03-03T02:52:00;52568.47;;;-146.77;66.37
55410;BME280;41279;43.546;16.426;2023-03-03T02:54:27;52620.53;;;-146.77;66.01
55410;BME280;41279;43.546;16.426;2023-03-03T02:56:55;52620.53;;;-146.77;64.69
55410;BME280;41279;43.546;16.426;2023-03-03T02:59:20;52574.47;;;-146.77;66.95
55410;BME280;41279;43.546;16.426;2023-03-03T03:01:46;52590.50;;;-146.77;69.43
55410;BME280;41279;43.546;16.426;2023-03-03T03:04:17;52530.44;;;-146.77;69.30
55410;BME280;41279;43.546;16.426;2023-03-03T03:06:43;52574.47;;;-146.77;67.49
55410;BME280;41279;43.546;16.426;2023-03-03T03:09:10;52616.53;;;-146.77;65.74
55410;BME280;41279;43.546;16.426;2023-03-03T03:11:36;52562.47;;;-146.77;66.78
55410;BME280;41279;43.546;16.426;2023-03-03T03:14:08;52582.50;;;-146.77;68.69
55410;BME280;41279;43.546;16.426;2023-03-03T03:16:34;52568.47;;;-146.77;69.73
55410;BME280;41279;43.546;16.426;2023-03-03T03:19:01;52614.53;;;-146.77;68.27
55410;BME280;41279;43.546;16.426;2023-03-03T03:21:27;52590.50;;;-146.77;66.44
55410;BME280;41279;43.546;16.426;2023-03-03T03:23:53;52594.50;;;-146.77;65.95
55410;BME280;41279;43.546;16.426;2023-03-03T03:26:18;52606.53;;;-146.77;70.90
55410;BME280;41279;43.546;16.426;2023-03-03T03:28:48;52522.44;;;-146.77;72.27
55410;BME280;41279;43.546;16.426;2023-03-03T03:31:14;52478.38;;;-146.77;75.10
55410;BME280;41279;43.546;16.426;2023-03-03T03:33:40;52480.38;;;-146.77;76.14
55410;BME280;41279;43.546;16.426;2023-03-03T03:36:06;52488.41;;;-146.77;75.08
55410;BME280;41279;43.546;16.426;2023-03-03T03:38:33;52452.34;;;-146.77;76.03
55410;BME280;41279;43.546;16.426;2023-03-03T03:40:59;52488.41;;;-146.77;73.74
55410;BME280;41279;43.546;16.426;2023-03-03T03:43:26;52442.34;;;-146.77;76.42
55410;BME280;41279;43.546;16.426;2023-03-03T03:45:51;52484.38;;;-146.77;72.93
55410;BME280;41279;43.546;16.426;2023-03-03T03:48:17;52456.38;;;-146.77;74.27
55410;BME280;41279;43.546;16.426;2023-03-03T03:50:45;52454.34;;;-146.77;78.01
55410;BME280;41279;43.546;16.426;2023-03-03T03:53:11;52458.38;;;-146.77;78.56
55410;BME280;41279;43.546;16.426;2023-03-03T03:55:36;52450.34;;;-146.77;78.61
55410;BME280;41279;43.546;16.426;2023-03-03T03:58:02;52502.41;;;-146.77;76.04
55410;BME280;41279;43.546;16.426;2023-03-03T04:00:27;52536.44;;;-146.77;72.89
55410;BME280;41279;43.546;16.426;2023-03-03T04:02:53;52540.44;;;-146.77;72.40
55410;BME280;41279;43.546;16.426;2023-03-03T04:05:18;52568.47;;;-146.77;71.17
55410;BME280;41279;43.546;16.426;2023-03-03T04:07:44;52514.41;;;-146.77;74.90
55410;BME280;41279;43.546;16.426;2023-03-03T04:10:10;52472.38;;;-146.77;77.08
55410;BME280;41279;43.546;16.426;2023-03-03T04:12:36;52488.41;;;-146.77;80.97
55410;BME280;41279;43.546;16.426;2023-03-03T04:15:10;52496.41;;;-146.77;79.69
55410;BME280;41279;43.546;16.426;2023-03-03T04:17:36;52498.41;;;-146.77;74.30
55410;BME280;41279;43.546;16.426;2023-03-03T04:20:02;52524.44;;;-146.77;74.94
55410;BME280;41279;43.546;16.426;2023-03-03T04:22:29;52510.41;;;-146.77;75.76
55410;BME280;41279;43.546;16.426;2023-03-03T04:25:05;52530.44;;;-146.77;75.85
55410;BME280;41279;43.546;16.426;2023-03-03T04:27:31;52564.47;;;-146.77;70.14
55410;BME280;41279;43.546;16.426;2023-03-03T04:29:57;52546.47;;;-146.77;69.39
55410;BME280;41279;43.546;16.426;2023-03-03T04:32:23;52520.44;;;-146.77;72.89
55410;BME280;41279;43.546;16.426;2023-03-03T04:34:49;52572.47;;;-146.77;70.15
55410;BME280;41279;43.546;16.426;2023-03-03T04:37:14;52582.50;;;-146.77;67.27
55410;BME280;41279;43.546;16.426;2023-03-03T04:39:40;52560.47;;;-146.77;70.30
55410;BME280;41279;43.546;16.426;2023-03-03T04:42:05;52566.47;;;-146.77;68.25
55410;BME280;41279;43.546;16.426;2023-03-03T04:44:30;52544.44;;;-146.77;67.56
55410;BME280;41279;43.546;16.426;2023-03-03T04:46:56;52590.50;;;-146.77;67.44
55410;BME280;41279;43.546;16.426;2023-03-03T04:49:21;52546.47;;;-146.77;68.54
55410;BME280;41279;43.546;16.426;2023-03-03T04:51:47;52530.44;;;-146.77;72.13
55410;BME280;41279;43.546;16.426;2023-03-03T04:54:12;52542.44;;;-146.77;72.72
55410;BME280;41279;43.546;16.426;2023-03-03T04:56:37;52588.50;;;-146.77;68.57
55410;BME280;41279;43.546;16.426;2023-03-03T04:59:03;52570.47;;;-146.77;67.55
55410;BME280;41279;43.546;16.426;2023-03-03T05:01:28;52592.50;;;-146.77;67.45
55410;BME280;41279;43.546;16.426;2023-03-03T05:03:54;52590.50;;;-146.77;66.43
55410;BME280;41279;43.546;16.426;2023-03-03T05:06:19;52558.47;;;-146.77;67.81
55410;BME280;41279;43.546;16.426;2023-03-03T05:08:45;52576.50;;;-146.77;67.63
55410;BME280;41279;43.546;16.426;2023-03-03T05:11:11;52564.47;;;-146.77;73.36
55410;BME280;41279;43.546;16.426;2023-03-03T05:13:38;52548.47;;;-146.77;70.68
55410;BME280;41279;43.546;16.426;2023-03-03T05:16:04;52552.47;;;-146.77;73.06
55410;BME280;41279;43.546;16.426;2023-03-03T05:18:29;52514.41;;;-146.77;74.89
55410;BME280;41279;43.546;16.426;2023-03-03T05:20:55;52544.44;;;-146.77;70.98
55410;BME280;41279;43.546;16.426;2023-03-03T05:23:21;52528.44;;;-146.77;70.64
55410;BME280;41279;43.546;16.426;2023-03-03T05:25:48;52596.50;;;-146.77;69.73
55410;BME280;41279;43.546;16.426;2023-03-03T05:28:14;52582.50;;;-146.77;66.72
55410;BME280;41279;43.546;16.426;2023-03-03T05:30:39;52606.53;;;-146.77;66.00
55410;BME280;41279;43.546;16.426;2023-03-03T05:33:05;52598.50;;;-146.77;65.32
55410;BME280;41279;43.546;16.426;2023-03-03T05:35:32;52630.53;;;-146.77;65.63
55410;BME280;41279;43.546;16.426;2023-03-03T05:37:57;52556.47;;;-146.77;68.14
55410;BME280;41279;43.546;16.426;2023-03-03T05:40:27;52546.47;;;-146.77;68.80
55410;BME280;41279;43.546;16.426;2023-03-03T05:42:52;52572.47;;;-146.77;67.25
55410;BME280;41279;43.546;16.426;2023-03-03T05:45:19;52532.44;;;-146.77;68.51
55410;BME280;41279;43.546;16.426;2023-03-03T05:47:46;52582.50;;;-146.77;69.02
55410;BME280;41279;43.546;16.426;2023-03-03T05:50:12;52550.47;;;-146.77;71.74
55410;BME280;41279;43.546;16.426;2023-03-03T05:52:37;52532.44;;;-146.77;70.44
55410;BME280;41279;43.546;16.426;2023-03-03T05:55:03;52582.50;;;-146.77;66.87
55410;BME280;41279;43.546;16.426;2023-03-03T05:57:29;52562.47;;;-146.77;67.14
55410;BME280;41279;43.546;16.426;2023-03-03T05:59:55;52554.47;;;-146.77;68.67
55410;BME280;41279;43.546;16.426;2023-03-03T06:02:20;52566.47;;;-146.77;68.00
55410;BME280;41279;43.546;16.426;2023-03-03T06:04:45;52568.47;;;-146.77;66.88
55410;BME280;41279;43.546;16.426;2023-03-03T06:07:11;52574.47;;;-146.77;70.44
55410;BME280;41279;43.546;16.426;2023-03-03T06:09:36;52550.47;;;-146.77;71.94
55410;BME280;41279;43.546;16.426;2023-03-03T06:12:02;52622.53;;;-146.77;66.93
55410;BME280;41279;43.546;16.426;2023-03-03T06:14:27;52644.56;;;-146.77;65.20
55410;BME280;41279;43.546;16.426;2023-03-03T06:16:53;52616.53;;;-146.77;65.30
55410;BME280;41279;43.546;16.426;2023-03-03T06:19:18;52626.53;;;-146.77;65.71
55410;BME280;41279;43.546;16.426;2023-03-03T06:21:44;52638.56;;;-146.77;65.45
55410;BME280;41279;43.546;16.426;2023-03-03T06:24:09;52610.53;;;-146.77;66.89
55410;BME280;41279;43.546;16.426;2023-03-03T06:26:34;52554.47;;;-146.77;71.92
55410;BME280;41279;43.546;16.426;2023-03-03T06:29:00;52598.50;;;-146.77;70.21
55410;BME280;41279;43.546;16.426;2023-03-03T06:31:26;52558.47;;;-146.77;71.11
55410;BME280;41279;43.546;16.426;2023-03-03T06:33:53;52582.50;;;-146.77;68.85
55410;BME280;41279;43.546;16.426;2023-03-03T06:36:19;52570.47;;;-146.77;67.56
55410;BME280;41279;43.546;16.426;2023-03-03T06:38:44;52552.47;;;-146.77;66.21
55410;BME280;41279;43.546;16.426;2023-03-03T06:41:10;52566.47;;;-146.77;66.25
55410;BME280;41279;43.546;16.426;2023-03-03T06:43:36;52602.50;;;-146.77;63.07
55410;BME280;41279;43.546;16.426;2023-03-03T06:46:02;52574.47;;;-146.77;66.36
55410;BME280;41279;43.546;16.426;2023-03-03T06:48:29;52510.41;;;-146.77;67.61
55410;BME280;41279;43.546;16.426;2023-03-03T06:50:55;52538.44;;;-146.77;68.75
55410;BME280;41279;43.546;16.426;2023-03-03T06:53:20;52544.44;;;-146.77;68.41
55410;BME280;41279;43.546;16.426;2023-03-03T06:55:46;52530.44;;;-146.77;70.92
55410;BME280;41279;43.546;16.426;2023-03-03T06:58:20;52538.44;;;-146.77;69.12
55410;BME280;41279;43.546;16.426;2023-03-03T07:00:58;52532.44;;;-146.77;71.55
55410;BME280;41279;43.546;16.426;2023-03-03T07:03:26;52522.44;;;-146.77;71.02
55410;BME280;41279;43.546;16.426;2023-03-03T07:05:54;52584.50;;;-146.77;65.50
55410;BME280;41279;43.546;16.426;2023-03-03T07:08:22;52606.53;;;-146.77;64.69
55410;BME280;41279;43.546;16.426;2023-03-03T07:10:48;52520.44;;;-146.77;72.37
55410;BME280;41279;43.546;16.426;2023-03-03T07:13:18;52498.41;;;-146.77;73.07
55410;BME280;41279;43.546;16.426;2023-03-03T07:15:44;52520.44;;;-146.77;71.63
55410;BME280;41279;43.546;16.426;2023-03-03T07:21:22;52538.44;;;-146.77;64.62
55410;BME280;41279;43.546;16.426;2023-03-03T07:23:51;52528.44;;;-146.77;68.39
55410;BME280;41279;43.546;16.426;2023-03-03T07:26:25;52504.41;;;-146.77;71.21
55410;BME280;41279;43.546;16.426;2023-03-03T07:29:26;52502.41;;;-146.77;74.79
55410;BME280;41279;43.546;16.426;2023-03-03T07:31:54;52502.41;;;-146.77;74.23
55410;BME280;41279;43.546;16.426;2023-03-03T07:39:49;52482.38;;;-146.77;75.21
55410;BME280;41279;43.546;16.426;2023-03-03T07:42:23;52478.38;;;-146.77;77.08
55410;BME280;41279;43.546;16.426;2023-03-03T07:44:51;52482.38;;;-146.77;74.85
55410;BME280;41279;43.546;16.426;2023-03-03T07:49:47;52530.44;;;-146.77;75.15
55410;BME280;41279;43.546;16.426;2023-03-03T07:52:53;52500.41;;;-146.77;74.96
55410;BME280;41279;43.546;16.426;2023-03-03T07:58:05;52446.34;;;-146.77;83.63
55410;BME280;41279;43.546;16.426;2023-03-03T08:03:44;52486.41;;;-146.77;80.44
55410;BME280;41279;43.546;16.426;2023-03-03T08:11:50;52494.41;;;-146.77;80.57
55410;BME280;41279;43.546;16.426;2023-03-03T08:14:26;52504.41;;;-146.77;79.93
55410;BME280;41279;43.546;16.426;2023-03-03T08:16:52;52492.41;;;-146.77;78.55
55410;BME280;41279;43.546;16.426;2023-03-03T08:19:24;52492.41;;;-146.77;77.19
55410;BME280;41279;43.546;16.426;2023-03-03T08:21:51;52520.44;;;-146.77;73.76
55410;BME280;41279;43.546;16.426;2023-03-03T08:24:17;52504.41;;;-146.77;75.45
55410;BME280;41279;43.546;16.426;2023-03-03T08:26:42;52478.38;;;-146.77;78.05
55410;BME280;41279;43.546;16.426;2023-03-03T08:29:09;52538.44;;;-146.77;78.88
55410;BME280;41279;43.546;16.426;2023-03-03T08:31:36;52452.34;;;-146.77;84.33
55410;BME280;41279;43.546;16.426;2023-03-03T08:34:01;52438.34;;;-146.77;87.55
55410;BME280;41279;43.546;16.426;2023-03-03T08:36:28;52520.44;;;-146.77;79.97
55410;BME280;41279;43.546;16.426;2023-03-03T08:38:54;52532.44;;;-146.77;80.55
55410;BME280;41279;43.546;16.426;2023-03-03T08:41:19;52478.38;;;-146.77;85.61
55410;BME280;41279;43.546;16.426;2023-03-03T08:43:45;52492.41;;;-146.77;86.54
55410;BME280;41279;43.546;16.426;2023-03-03T08:46:10;52426.34;;;-146.77;91.55
55410;BME280;41279;43.546;16.426;2023-03-03T08:48:36;52458.38;;;-146.77;89.95
55410;BME280;41279;43.546;16.426;2023-03-03T08:51:02;52402.31;;;-146.77;92.08
55410;BME280;41279;43.546;16.426;2023-03-03T08:53:28;52366.28;;;-146.77;92.00
55410;BME280;41279;43.546;16.426;2023-03-03T08:55:54;52412.31;;;-146.77;90.40
55410;BME280;41279;43.546;16.426;2023-03-03T08:58:21;52444.34;;;-146.77;89.61
55410;BME280;41279;43.546;16.426;2023-03-03T09:00:46;52450.34;;;-146.77;88.15
55410;BME280;41279;43.546;16.426;2023-03-03T09:03:12;52410.31;;;-146.77;90.51
55410;BME280;41279;43.546;16.426;2023-03-03T09:05:38;52414.31;;;-146.77;90.79
55410;BME280;41279;43.546;16.426;2023-03-03T09:08:05;52444.34;;;-146.77;86.78
55410;BME280;41279;43.546;16.426;2023-03-03T09:10:32;52398.31;;;-146.77;88.11
55410;BME280;41279;43.546;16.426;2023-03-03T09:13:02;52520.44;;;-146.77;83.70
55410;BME280;41279;43.546;16.426;2023-03-03T09:15:31;52520.44;;;-146.77;78.51
55410;BME280;41279;43.546;16.426;2023-03-03T09:18:08;52530.44;;;-146.77;80.92
55410;BME280;41279;43.546;16.426;2023-03-03T09:20:44;52498.41;;;-146.77;83.59
55410;BME280;41279;43.546;16.426;2023-03-03T09:25:58;52548.47;;;-146.77;77.41
55410;BME280;41279;43.546;16.426;2023-03-03T09:28:37;52476.38;;;-146.77;79.22
55410;BME280;41279;43.546;16.426;2023-03-03T09:31:03;52492.41;;;-146.77;81.89
55410;BME280;41279;43.546;16.426;2023-03-03T09:33:44;52510.41;;;-146.77;76.95
55410;BME280;41279;43.546;16.426;2023-03-03T09:36:34;52564.47;;;-146.77;72.37
55410;BME280;41279;43.546;16.426;2023-03-03T09:39:21;52570.47;;;-146.77;67.36
55410;BME280;41279;43.546;16.426;2023-03-03T09:44:42;52538.44;;;-146.77;68.07
55410;BME280;41279;43.546;16.426;2023-03-03T09:49:57;52580.50;;;-146.77;70.88
55410;BME280;41279;43.546;16.426;2023-03-03T09:52:37;52642.56;;;-146.77;66.70
55410;BME280;41279;43.546;16.426;2023-03-03T10:06:26;52586.50;;;-146.77;68.51
55410;BME280;41279;43.546;16.426;2023-03-03T10:11:31;52628.53;;;-146.77;63.33
55410;BME280;41279;43.546;16.426;2023-03-03T10:14:16;52574.47;;;-146.77;70.50
55410;BME280;41279;43.546;16.426;2023-03-03T10:16:56;52546.47;;;-146.77;70.54
55410;BME280;41279;43.546;16.426;2023-03-03T10:25:21;52566.47;;;-146.77;78.99
55410;BME280;41279;43.546;16.426;2023-03-03T10:30:37;52566.47;;;-146.77;73.97
55410;BME280;41279;43.546;16.426;2023-03-03T10:41:11;52600.50;;;-146.77;71.86
55410;BME280;41279;43.546;16.426;2023-03-03T10:46:42;52598.50;;;-146.77;67.76
55410;BME280;41279;43.546;16.426;2023-03-03T10:49:36;52590.50;;;-146.77;69.16
55410;BME280;41279;43.546;16.426;2023-03-03T10:52:35;52568.47;;;-146.77;72.31
55410;BME280;41279;43.546;16.426;2023-03-03T10:55:27;52640.56;;;-146.77;68.50
55410;BME280;41279;43.546;16.426;2023-03-03T11:01:02;52602.50;;;-146.77;nan
55410;BME280;41279;43.546;16.426;2023-03-03T11:09:33;52632.53;;;-146.77;68.83
55410;BME280;41279;43.546;16.426;2023-03-03T11:14:43;52594.50;;;-146.77;72.41
55410;BME280;41279;43.546;16.426;2023-03-03T11:21:11;52588.50;;;-146.77;69.72
55410;BME280;41279;43.546;16.426;2023-03-03T11:23:48;52594.50;;;-146.77;67.62
55410;BME280;41279;43.546;16.426;2023-03-03T11:26:35;52610.53;;;-146.77;69.39
55410;BME280;41279;43.546;16.426;2023-03-03T11:31:37;52598.50;;;-146.77;66.29
55410;BME280;41279;43.546;16.426;2023-03-03T11:37:01;52590.50;;;-146.77;67.31
55410;BME280;41279;43.546;16.426;2023-03-03T11:39:28;52594.50;;;-146.77;69.54
55410;BME280;41279;43.546;16.426;2023-03-03T11:44:37;52598.50;;;-146.77;75.17
55410;BME280;41279;43.546;16.426;2023-03-03T11:47:24;52538.44;;;-146.77;80.71
55410;BME280;41279;43.546;16.426;2023-03-03T11:50:02;52532.44;;;-146.77;79.00
55410;BME280;41279;43.546;16.426;2023-03-03T11:52:49;52578.50;;;-146.77;78.48
55410;BME280;41279;43.546;16.426;2023-03-03T11:55:26;52614.53;;;-146.77;79.17
55410;BME280;41279;43.546;16.426;2023-03-03T12:00:36;52578.50;;;-146.77;89.77
55410;BME280;41279;43.546;16.426;2023-03-03T12:03:30;52504.41;;;-146.77;91.95
55410;BME280;41279;43.546;16.426;2023-03-03T12:11:47;52460.38;;;-146.77;100.00
55410;BME280;41279;43.546;16.426;2023-03-03T12:14:27;52674.59;;;-146.77;100.00
55410;BME280;41279;43.546;16.426;2023-03-03T12:16:58;52714.63;;;-146.77;100.00
55410;BME280;41279;43.546;16.426;2023-03-03T12:24:45;55915.44;;;-146.77;100.00
55410;BME280;41279;43.546;16.426;2023-03-03T12:30:09;56544.66;;;-146.77;100.00
55410;BME280;41279;43.546;16.426;2023-03-03T12:38:22;61229.06;;;-146.77;100.00
55410;BME280;41279;43.546;16.426;2023-03-03T12:40:59;57999.94;;;-146.77;100.00
55410;BME280;41279;43.546;16.426;2023-03-03T12:49:10;56957.53;;;-146.77;100.00
55410;BME280;41279;43.546;16.426;2023-03-03T12:54:46;54661.25;;;-146.77;100.00
55410;BME280;41279;43.546;16.426;2023-03-03T13:00:21;55729.06;;;-146.77;100.00
55410;BME280;41279;43.546;16.426;2023-03-03T13:06:00;52874.81;;;-146.77;100.00
55410;BME280;41279;43.546;16.426;2023-03-03T13:16:44;52644.56;;;-146.77;100.00
55410;BME280;41279;43.546;16.426;2023-03-03T13:19:27;52682.59;;;-146.77;94.56
55410;BME280;41279;43.546;16.426;2023-03-03T13:22:03;52610.53;;;-146.77;95.04
55410;BME280;41279;43.546;16.426;2023-03-03T13:24:52;52836.78;;;-146.77;69.95
55410;BME280;41279;43.546;16.426;2023-03-03T13:27:19;52814.75;;;-146.77;70.55
55410;BME280;41279;43.546;16.426;2023-03-03T13:29:59;52810.75;;;-146.77;63.28
55410;BME280;41279;43.546;16.426;2023-03-03T13:32:37;52798.72;;;-146.77;57.70
55410;BME280;41279;43.546;16.426;2023-03-03T13:35:36;52922.88;;;-146.77;56.65
55410;BME280;41279;43.546;16.426;2023-03-03T13:38:12;52890.84;;;-146.77;52.04
55410;BME280;41279;43.546;16.426;2023-03-03T13:40:45;52812.75;;;-146.77;50.68
55410;BME280;41279;43.546;16.426;2023-03-03T13:43:24;52912.84;;;-146.77;54.42
55410;BME280;41279;43.546;16.426;2023-03-03T14:07:50;52642.56;;;-146.77;65.35
55410;BME280;41279;43.546;16.426;2023-03-03T14:10:31;52688.59;;;-146.77;62.88
55410;BME280;41279;43.546;16.426;2023-03-03T14:14:10;52606.53;;;-146.77;65.66
55410;BME280;41279;43.546;16.426;2023-03-03T14:19:04;52550.47;;;-146.77;66.74
55410;BME280;41279;43.546;16.426;2023-03-03T14:21:41;52550.47;;;-146.77;71.06
55410;BME280;41279;43.546;16.426;2023-03-03T14:24:14;52586.50;;;-146.77;69.68
55410;BME280;41279;43.546;16.426;2023-03-03T14:26:46;52578.50;;;-146.77;67.59
55410;BME280;41279;43.546;16.426;2023-03-03T14:31:55;52568.47;;;-146.77;68.62
55410;BME280;41279;43.546;16.426;2023-03-03T14:34:37;52594.50;;;-146.77;69.24
55410;BME280;41279;43.546;16.426;2023-03-03T14:37:25;52634.53;;;-146.77;63.08
55410;BME280;41279;43.546;16.426;2023-03-03T14:40:20;52680.59;;;-146.77;59.88
55410;BME280;41279;43.546;16.426;2023-03-03T14:45:30;52584.50;;;-146.77;69.55
55410;BME280;41279;43.546;16.426;2023-03-03T14:47:57;52702.63;;;-146.77;64.07
55410;BME280;41279;43.546;16.426;2023-03-03T14:55:35;52758.69;;;-146.77;51.37
55410;BME280;41279;43.546;16.426;2023-03-03T14:58:01;52638.56;;;-146.77;61.07
55410;BME280;41279;43.546;16.426;2023-03-03T15:00:31;52586.50;;;-146.77;65.24
55410;BME280;41279;43.546;16.426;2023-03-03T15:03:02;52628.53;;;-146.77;65.22
55410;BME280;41279;43.546;16.426;2023-03-03T15:05:32;52658.56;;;-146.77;62.90
55410;BME280;41279;43.546;16.426;2023-03-03T15:08:08;52594.50;;;-146.77;68.66
55410;BME280;41279;43.546;16.426;2023-03-03T15:16:19;52652.56;;;-146.77;69.16
55410;BME280;41279;43.546;16.426;2023-03-03T15:21:32;52642.56;;;-146.77;67.64
55410;BME280;41279;43.546;16.426;2023-03-03T15:24:23;52726.66;;;-146.77;61.56
55410;BME280;41279;43.546;16.426;2023-03-03T15:27:11;52678.59;;;-146.77;59.60
55410;BME280;41279;43.546;16.426;2023-03-03T15:30:10;52758.69;;;-146.77;67.55
55410;BME280;41279;43.546;16.426;2023-03-03T15:37:58;52692.63;;;-146.77;70.14
55410;BME280;41279;43.546;16.426;2023-03-03T15:40:29;52722.66;;;-146.77;70.63
55410;BME280;41279;43.546;16.426;2023-03-03T15:43:48;52762.69;;;-146.77;65.45
55410;BME280;41279;43.546;16.426;2023-03-03T15:54:40;52714.63;;;-146.77;68.85
55410;BME280;41279;43.546;16.426;2023-03-03T15:57:21;52586.50;;;-146.77;73.45
55410;BME280;41279;43.546;16.426;2023-03-03T16:02:48;52572.47;;;-146.77;74.13
55410;BME280;41279;43.546;16.426;2023-03-03T16:05:22;52568.47;;;-146.77;73.22
55410;BME280;41279;43.546;16.426;2023-03-03T16:10:23;52620.53;;;-146.77;72.60
55410;BME280;41279;43.546;16.426;2023-03-03T16:20:49;52560.47;;;-146.77;77.21
55410;BME280;41279;43.546;16.426;2023-03-03T16:26:34;52614.53;;;-146.77;78.74
55410;BME280;41279;43.546;16.426;2023-03-03T16:32:09;52580.50;;;-146.77;76.61